sensor_id;sensor_type;location;lat;lon;timestamp;P1;durP1;ratioP1;P2;durP2;ratioP2
28958;SDS011;16066;0.000;0.000;2024-01-15T06:02:38;9.90;;;6.00;;
28958;SDS011;16066;0.000;0.000;2024-01-15T06:05:04;9.03;;;5.77;;
28958;SDS011;16066;0.000;0.000;2024-01-15T06:07:31;12.47;;;5.97;;
28958;SDS011;16066;0.000;0.000;2024-01-15T06:09:57;11.20;;;6.97;;
28958;SDS011;16066;0.000;0.000;2024-01-15T06:12:22;10.93;;;5.70;;
28958;SDS011;16066;0.000;0.000;2024-01-15T06:14:48;9.17;;;6.17;;
28958;SDS011;16066;0.000;0.000;2024-01-15T06:17:13;7.70;;;6.00;;
28958;SDS011;16066;0.000;0.000;2024-01-15T06:19:39;9.20;;;6.07;;
28958;SDS011;16066;0.000;0.000;2024-01-15T06:22:05;8.70;;;5.50;;
28958;SDS011;16066;0.000;0.000;2024-01-15T06:24:30;7.90;;;6.10;;
28958;SDS011;16066;0.000;0.000;2024-01-15T06:26:56;8.57;;;6.03;;
28958;SDS011;16066;0.000;0.000;2024-01-15T06:29:22;7.57;;;5.60;;
28958;SDS011;16066;0.000;0.000;2024-01-15T06:31:50;7.60;;;5.40;;
28958;SDS011;16066;0.000;0.000;2024-01-15T06:34:16;9.27;;;6.17;;
28958;SDS011;16066;0.000;0.000;2024-01-15T06:36:41;8.30;;;5.93;;
28958;SDS011;16066;0.000;0.000;2024-01-15T06:39:07;7.00;;;5.50;;
28958;SDS011;16066;0.000;0.000;2024-01-15T06:41:35;9.37;;;5.30;;
28958;SDS011;16066;0.000;0.000;2024-01-15T06:44:06;7.57;;;5.00;;
28958;SDS011;16066;0.000;0.000;2024-01-15T06:46:32;10.20;;;5.20;;
28958;SDS011;16066;0.000;0.000;2024-01-15T06:48:58;6.50;;;5.07;;
28958;SDS011;16066;0.000;0.000;2024-01-15T06:51:24;12.50;;;6.00;;
28958;SDS011;16066;0.000;0.000;2024-01-15T06:53:49;9.77;;;5.93;;
28958;SDS011;16066;0.000;0.000;2024-01-15T06:56:15;7.87;;;5.03;;
28958;SDS011;16066;0.000;0.000;2024-01-15T06:58:41;6.80;;;5.37;;
28958;SDS011;16066;0.000;0.000;2024-01-15T07:01:06;7.17;;;5.90;;
28958;SDS011;16066;0.000;0.000;2024-01-15T07:03:33;6.97;;;5.30;;
28958;SDS011;16066;0.000;0.000;2024-01-15T07:05:58;8.27;;;5.10;;
28958;SDS011;16066;0.000;0.000;2024-01-15T07:08:24;7.30;;;5.63;;
28958;SDS011;16066;0.000;0.000;2024-01-15T07:10:50;6.43;;;5.20;;
28958;SDS011;16066;0.000;0.000;2024-01-15T07:13:15;7.00;;;4.87;;
28958;SDS011;16066;0.000;0.000;2024-01-15T07:15:41;6.73;;;5.60;;
28958;SDS011;16066;0.000;0.000;2024-01-15T07:18:06;7.50;;;5.90;;
28958;SDS011;16066;0.000;0.000;2024-01-15T07:20:32;10.60;;;5.30;;
28958;SDS011;16066;0.000;0.000;2024-01-15T07:22:58;6.43;;;5.10;;
28958;SDS011;16066;0.000;0.000;2024-01-15T07:25:23;7.87;;;5.50;;
28958;SDS011;16066;0.000;0.000;2024-01-15T07:27:51;7.63;;;5.47;;
28958;SDS011;16066;0.000;0.000;2024-01-15T07:30:16;10.07;;;5.63;;
28958;SDS011;16066;0.000;0.000;2024-01-15T07:32:42;7.63;;;5.60;;
28958;SDS011;16066;0.000;0.000;2024-01-15T07:35:08;7.20;;;5.70;;
28958;SDS011;16066;0.000;0.000;2024-01-15T07:37:33;7.20;;;5.13;;
28958;SDS011;16066;0.000;0.000;2024-01-15T07:39:59;7.27;;;5.50;;
28958;SDS011;16066;0.000;0.000;2024-01-15T07:42:25;6.00;;;5.00;;
28958;SDS011;16066;0.000;0.000;2024-01-15T07:44:50;7.60;;;5.17;;
28958;SDS011;16066;0.000;0.000;2024-01-15T07:47:16;5.90;;;4.47;;
28958;SDS011;16066;0.000;0.000;2024-01-15T07:49:42;6.23;;;4.60;;
28958;SDS011;16066;0.000;0.000;2024-01-15T07:52:07;5.30;;;4.33;;
28958;SDS011;16066;0.000;0.000;2024-01-15T07:54:33;6.40;;;4.47;;
28958;SDS011;16066;0.000;0.000;2024-01-15T07:57:00;6.40;;;4.57;;
28958;SDS011;16066;0.000;0.000;2024-01-15T07:59:28;5.83;;;4.30;;
28958;SDS011;16066;0.000;0.000;2024-01-15T08:01:54;5.57;;;4.03;;
28958;SDS011;16066;0.000;0.000;2024-01-15T08:04:19;4.70;;;4.13;;
28958;SDS011;16066;0.000;0.000;2024-01-15T08:06:45;5.23;;;3.67;;
28958;SDS011;16066;0.000;0.000;2024-01-15T08:09:11;4.87;;;3.97;;
28958;SDS011;16066;0.000;0.000;2024-01-15T08:11:41;5.00;;;3.80;;
28958;SDS011;16066;0.000;0.000;2024-01-15T08:14:07;7.17;;;3.43;;
28958;SDS011;16066;0.000;0.000;2024-01-15T08:16:33;5.63;;;4.20;;
28958;SDS011;16066;0.000;0.000;2024-01-15T08:18:59;7.40;;;3.87;;
28958;SDS011;16066;0.000;0.000;2024-01-15T08:21:25;5.13;;;3.57;;
28958;SDS011;16066;0.000;0.000;2024-01-15T08:23:50;6.73;;;3.27;;
28958;SDS011;16066;0.000;0.000;2024-01-15T08:26:16;4.50;;;3.70;;
28958;SDS011;16066;0.000;0.000;2024-01-15T08:28:41;5.80;;;3.67;;
28958;SDS011;16066;0.000;0.000;2024-01-15T08:31:07;5.37;;;4.00;;
28958;SDS011;16066;0.000;0.000;2024-01-15T08:33:32;6.83;;;4.07;;
28958;SDS011;16066;0.000;0.000;2024-01-15T08:35:58;5.60;;;3.60;;
28958;SDS011;16066;0.000;0.000;2024-01-15T08:38:23;9.00;;;3.50;;
28958;SDS011;16066;0.000;0.000;2024-01-15T08:40:50;6.70;;;3.47;;
28958;SDS011;16066;0.000;0.000;2024-01-15T08:43:16;5.33;;;4.13;;
28958;SDS011;16066;0.000;0.000;2024-01-15T08:45:41;15.93;;;3.83;;
28958;SDS011;16066;0.000;0.000;2024-01-15T08:48:07;4.70;;;3.40;;
28958;SDS011;16066;0.000;0.000;2024-01-15T08:50:32;5.20;;;3.53;;
28958;SDS011;16066;0.000;0.000;2024-01-15T08:52:58;5.23;;;3.40;;
28958;SDS011;16066;0.000;0.000;2024-01-15T08:55:24;7.00;;;3.43;;
28958;SDS011;16066;0.000;0.000;2024-01-15T08:57:49;4.70;;;3.70;;
28958;SDS011;16066;0.000;0.000;2024-01-15T09:00:15;7.17;;;4.47;;
28958;SDS011;16066;0.000;0.000;2024-01-15T09:02:41;5.93;;;3.50;;
28958;SDS011;16066;0.000;0.000;2024-01-15T09:05:07;5.30;;;3.47;;
28958;SDS011;16066;0.000;0.000;2024-01-15T09:07:33;4.40;;;3.17;;
28958;SDS011;16066;0.000;0.000;2024-01-15T09:09:58;4.20;;;3.00;;
28958;SDS011;16066;0.000;0.000;2024-01-15T09:12:25;5.03;;;3.73;;
28958;SDS011;16066;0.000;0.000;2024-01-15T09:14:50;3.80;;;2.97;;
28958;SDS011;16066;0.000;0.000;2024-01-15T09:17:17;6.47;;;3.40;;
28958;SDS011;16066;0.000;0.000;2024-01-15T09:19:42;4.30;;;3.10;;
28958;SDS011;16066;0.000;0.000;2024-01-15T09:22:09;11.90;;;3.50;;
28958;SDS011;16066;0.000;0.000;2024-01-15T09:24:34;5.43;;;3.73;;
28958;SDS011;16066;0.000;0.000;2024-01-15T09:27:00;4.80;;;3.27;;
28958;SDS011;16066;0.000;0.000;2024-01-15T09:29:26;4.60;;;3.33;;
28958;SDS011;16066;0.000;0.000;2024-01-15T09:31:51;5.67;;;2.90;;
28958;SDS011;16066;0.000;0.000;2024-01-15T09:34:17;4.77;;;3.40;;
28958;SDS011;16066;0.000;0.000;2024-01-15T09:36:43;4.93;;;3.30;;
28958;SDS011;16066;0.000;0.000;2024-01-15T09:39:09;3.27;;;2.90;;
28958;SDS011;16066;0.000;0.000;2024-01-15T09:41:36;4.90;;;3.50;;
28958;SDS011;16066;0.000;0.000;2024-01-15T09:44:02;4.37;;;3.47;;
28958;SDS011;16066;0.000;0.000;2024-01-15T09:46:29;5.10;;;3.33;;
28958;SDS011;16066;0.000;0.000;2024-01-15T09:48:56;3.17;;;2.83;;
28958;SDS011;16066;0.000;0.000;2024-01-15T09:51:22;5.13;;;3.37;;
28958;SDS011;16066;0.000;0.000;2024-01-15T09:53:49;4.50;;;3.30;;
28958;SDS011;16066;0.000;0.000;2024-01-15T09:56:15;4.53;;;2.97;;
28958;SDS011;16066;0.000;0.000;2024-01-15T09:58:41;5.90;;;3.40;;
28958;SDS011;16066;0.000;0.000;2024-01-15T10:01:07;6.30;;;3.10;;
28958;SDS011;16066;0.000;0.000;2024-01-15T10:03:34;12.20;;;3.90;;
28958;SDS011;16066;0.000;0.000;2024-01-15T10:05:59;3.80;;;2.90;;
28958;SDS011;16066;0.000;0.000;2024-01-15T10:08:25;3.47;;;3.10;;
28958;SDS011;16066;0.000;0.000;2024-01-15T10:10:50;4.70;;;3.07;;
28958;SDS011;16066;0.000;0.000;2024-01-15T10:13:16;4.93;;;3.40;;
28958;SDS011;16066;0.000;0.000;2024-01-15T10:15:45;4.70;;;3.77;;
28958;SDS011;16066;0.000;0.000;2024-01-15T10:18:12;4.13;;;3.20;;
28958;SDS011;16066;0.000;0.000;2024-01-15T10:20:37;5.60;;;3.50;;
28958;SDS011;16066;0.000;0.000;2024-01-15T10:23:04;4.43;;;3.33;;
28958;SDS011;16066;0.000;0.000;2024-01-15T10:25:30;5.80;;;3.50;;
28958;SDS011;16066;0.000;0.000;2024-01-15T10:27:59;5.13;;;2.53;;
28958;SDS011;16066;0.000;0.000;2024-01-15T10:30:26;11.17;;;3.33;;
28958;SDS011;16066;0.000;0.000;2024-01-15T10:33:01;4.80;;;3.40;;
28958;SDS011;16066;0.000;0.000;2024-01-15T10:35:31;3.70;;;2.90;;
28958;SDS011;16066;0.000;0.000;2024-01-15T10:37:58;6.40;;;3.10;;
28958;SDS011;16066;0.000;0.000;2024-01-15T10:40:24;5.33;;;3.20;;
28958;SDS011;16066;0.000;0.000;2024-01-15T10:42:50;6.87;;;3.83;;
28958;SDS011;16066;0.000;0.000;2024-01-15T10:45:15;13.93;;;4.60;;
28958;SDS011;16066;0.000;0.000;2024-01-15T10:47:42;5.13;;;3.63;;
28958;SDS011;16066;0.000;0.000;2024-01-15T10:50:08;4.87;;;3.33;;
28958;SDS011;16066;0.000;0.000;2024-01-15T10:52:38;5.30;;;3.37;;
28958;SDS011;16066;0.000;0.000;2024-01-15T10:55:13;4.53;;;3.43;;
28958;SDS011;16066;0.000;0.000;2024-01-15T10:57:39;4.83;;;3.50;;
28958;SDS011;16066;0.000;0.000;2024-01-15T11:00:05;4.80;;;3.77;;
28958;SDS011;16066;0.000;0.000;2024-01-15T11:02:32;10.07;;;3.43;;
28958;SDS011;16066;0.000;0.000;2024-01-15T11:04:59;4.37;;;3.27;;
28958;SDS011;16066;0.000;0.000;2024-01-15T11:07:25;5.03;;;3.07;;
28958;SDS011;16066;0.000;0.000;2024-01-15T11:09:51;6.00;;;3.23;;
28958;SDS011;16066;0.000;0.000;2024-01-15T11:12:17;5.37;;;2.90;;
28958;SDS011;16066;0.000;0.000;2024-01-15T11:17:13;3.20;;;2.90;;
28958;SDS011;16066;0.000;0.000;2024-01-15T11:19:44;4.03;;;3.00;;
28958;SDS011;16066;0.000;0.000;2024-01-15T11:24:54;4.43;;;2.93;;
28958;SDS011;16066;0.000;0.000;2024-01-15T11:27:39;2.70;;;2.50;;
28958;SDS011;16066;0.000;0.000;2024-01-15T11:30:08;4.50;;;3.10;;
28958;SDS011;16066;0.000;0.000;2024-01-15T11:32:35;5.30;;;3.20;;
28958;SDS011;16066;0.000;0.000;2024-01-15T11:35:01;7.33;;;3.40;;
28958;SDS011;16066;0.000;0.000;2024-01-15T11:37:28;8.10;;;4.20;;
28958;SDS011;16066;0.000;0.000;2024-01-15T11:40:14;4.23;;;3.63;;
28958;SDS011;16066;0.000;0.000;2024-01-15T11:43:02;3.20;;;2.83;;
28958;SDS011;16066;0.000;0.000;2024-01-15T11:45:30;4.83;;;3.50;;
28958;SDS011;16066;0.000;0.000;2024-01-15T11:48:08;5.63;;;3.20;;
28958;SDS011;16066;0.000;0.000;2024-01-15T11:50:44;6.87;;;3.07;;
28958;SDS011;16066;0.000;0.000;2024-01-15T11:56:02;4.57;;;3.17;;
28958;SDS011;16066;0.000;0.000;2024-01-15T11:58:30;4.37;;;3.40;;
28958;SDS011;16066;0.000;0.000;2024-01-15T12:00:56;7.60;;;3.70;;
28958;SDS011;16066;0.000;0.000;2024-01-15T12:03:22;11.57;;;3.10;;
28958;SDS011;16066;0.000;0.000;2024-01-15T12:05:48;5.80;;;3.30;;
28958;SDS011;16066;0.000;0.000;2024-01-15T12:08:14;4.97;;;3.33;;
28958;SDS011;16066;0.000;0.000;2024-01-15T12:10:40;3.73;;;3.23;;
28958;SDS011;16066;0.000;0.000;2024-01-15T12:13:10;3.50;;;3.03;;
28958;SDS011;16066;0.000;0.000;2024-01-15T12:15:37;6.90;;;3.53;;
28958;SDS011;16066;0.000;0.000;2024-01-15T12:18:07;6.27;;;3.73;;
28958;SDS011;16066;0.000;0.000;2024-01-15T12:20:33;5.10;;;3.50;;
28958;SDS011;16066;0.000;0.000;2024-01-15T12:22:59;5.50;;;3.60;;
28958;SDS011;16066;0.000;0.000;2024-01-15T12:25:26;3.33;;;2.93;;
28958;SDS011;16066;0.000;0.000;2024-01-15T12:27:52;4.90;;;3.40;;
28958;SDS011;16066;0.000;0.000;2024-01-15T12:30:18;4.10;;;3.20;;
28958;SDS011;16066;0.000;0.000;2024-01-15T12:32:44;4.07;;;3.10;;
28958;SDS011;16066;0.000;0.000;2024-01-15T12:35:10;5.33;;;3.53;;
28958;SDS011;16066;0.000;0.000;2024-01-15T12:37:37;4.70;;;3.77;;
28958;SDS011;16066;0.000;0.000;2024-01-15T12:40:04;5.00;;;4.00;;
28958;SDS011;16066;0.000;0.000;2024-01-15T12:42:32;10.20;;;3.77;;
28958;SDS011;16066;0.000;0.000;2024-01-15T12:44:59;5.30;;;3.30;;
28958;SDS011;16066;0.000;0.000;2024-01-15T12:47:25;6.10;;;3.33;;
28958;SDS011;16066;0.000;0.000;2024-01-15T12:49:51;10.57;;;3.77;;
28958;SDS011;16066;0.000;0.000;2024-01-15T12:52:19;5.47;;;3.90;;
28958;SDS011;16066;0.000;0.000;2024-01-15T12:54:46;6.37;;;3.93;;
28958;SDS011;16066;0.000;0.000;2024-01-15T12:57:15;5.60;;;4.30;;
28958;SDS011;16066;0.000;0.000;2024-01-15T12:59:42;5.93;;;4.40;;
28958;SDS011;16066;0.000;0.000;2024-01-15T13:02:09;10.70;;;3.60;;
28958;SDS011;16066;0.000;0.000;2024-01-15T13:04:35;5.20;;;3.93;;
28958;SDS011;16066;0.000;0.000;2024-01-15T13:07:00;5.70;;;3.90;;
28958;SDS011;16066;0.000;0.000;2024-01-15T13:09:26;6.67;;;4.57;;
28958;SDS011;16066;0.000;0.000;2024-01-15T13:11:51;10.17;;;4.70;;
28958;SDS011;16066;0.000;0.000;2024-01-15T13:14:17;7.00;;;4.97;;
28958;SDS011;16066;0.000;0.000;2024-01-15T13:16:43;10.43;;;4.40;;
28958;SDS011;16066;0.000;0.000;2024-01-15T13:19:09;5.93;;;4.70;;
28958;SDS011;16066;0.000;0.000;2024-01-15T13:21:38;7.10;;;4.70;;
28958;SDS011;16066;0.000;0.000;2024-01-15T13:24:05;4.90;;;3.97;;
28958;SDS011;16066;0.000;0.000;2024-01-15T13:26:34;5.20;;;4.43;;
28958;SDS011;16066;0.000;0.000;2024-01-15T13:29:03;8.63;;;4.73;;
28958;SDS011;16066;0.000;0.000;2024-01-15T13:31:29;6.60;;;4.50;;
28958;SDS011;16066;0.000;0.000;2024-01-15T13:33:55;6.53;;;4.53;;
28958;SDS011;16066;0.000;0.000;2024-01-15T13:36:21;11.17;;;5.17;;
28958;SDS011;16066;0.000;0.000;2024-01-15T13:38:48;5.23;;;4.00;;
28958;SDS011;16066;0.000;0.000;2024-01-15T13:41:17;4.83;;;4.33;;
28958;SDS011;16066;0.000;0.000;2024-01-15T13:43:53;6.83;;;4.10;;
28958;SDS011;16066;0.000;0.000;2024-01-15T13:46:23;8.20;;;5.90;;
28958;SDS011;16066;0.000;0.000;2024-01-15T13:48:51;7.43;;;5.27;;
28958;SDS011;16066;0.000;0.000;2024-01-15T13:51:17;6.43;;;4.93;;
28958;SDS011;16066;0.000;0.000;2024-01-15T13:53:42;8.10;;;5.60;;
28958;SDS011;16066;0.000;0.000;2024-01-15T13:56:08;7.10;;;5.40;;
28958;SDS011;16066;0.000;0.000;2024-01-15T13:58:35;7.33;;;5.97;;
28958;SDS011;16066;0.000;0.000;2024-01-15T14:01:01;8.30;;;5.70;;
28958;SDS011;16066;0.000;0.000;2024-01-15T14:03:28;10.13;;;5.37;;
28958;SDS011;16066;0.000;0.000;2024-01-15T14:05:53;6.80;;;5.27;;
28958;SDS011;16066;0.000;0.000;2024-01-15T14:08:19;7.20;;;6.00;;
28958;SDS011;16066;0.000;0.000;2024-01-15T14:10:44;9.33;;;5.13;;
28958;SDS011;16066;0.000;0.000;2024-01-15T14:13:10;8.67;;;5.43;;
28958;SDS011;16066;0.000;0.000;2024-01-15T14:15:36;7.93;;;5.60;;
28958;SDS011;16066;0.000;0.000;2024-01-15T14:18:01;9.57;;;5.73;;
28958;SDS011;16066;0.000;0.000;2024-01-15T14:20:27;6.37;;;5.13;;
28958;SDS011;16066;0.000;0.000;2024-01-15T14:22:54;6.53;;;4.47;;
28958;SDS011;16066;0.000;0.000;2024-01-15T14:25:20;10.63;;;5.53;;
28958;SDS011;16066;0.000;0.000;2024-01-15T14:27:46;8.20;;;5.37;;
28958;SDS011;16066;0.000;0.000;2024-01-15T14:30:12;8.50;;;4.90;;
28958;SDS011;16066;0.000;0.000;2024-01-15T14:32:38;7.30;;;4.70;;
28958;SDS011;16066;0.000;0.000;2024-01-15T14:35:04;8.27;;;4.40;;
28958;SDS011;16066;0.000;0.000;2024-01-15T14:37:30;8.43;;;5.30;;
28958;SDS011;16066;0.000;0.000;2024-01-15T14:39:56;6.17;;;4.53;;
28958;SDS011;16066;0.000;0.000;2024-01-15T14:42:22;6.17;;;4.70;;
28958;SDS011;16066;0.000;0.000;2024-01-15T14:44:49;5.60;;;4.37;;
28958;SDS011;16066;0.000;0.000;2024-01-15T14:47:14;6.43;;;4.30;;
28958;SDS011;16066;0.000;0.000;2024-01-15T14:49:40;6.47;;;4.37;;
28958;SDS011;16066;0.000;0.000;2024-01-15T14:52:05;7.03;;;4.80;;
28958;SDS011;16066;0.000;0.000;2024-01-15T14:54:31;6.23;;;4.03;;
28958;SDS011;16066;0.000;0.000;2024-01-15T14:56:57;6.30;;;4.40;;
28958;SDS011;16066;0.000;0.000;2024-01-15T14:59:22;5.33;;;4.40;;
28958;SDS011;16066;0.000;0.000;2024-01-15T15:01:48;6.40;;;4.63;;
28958;SDS011;16066;0.000;0.000;2024-01-15T15:04:13;6.37;;;4.60;;
28958;SDS011;16066;0.000;0.000;2024-01-15T15:06:39;5.53;;;4.67;;
28958;SDS011;16066;0.000;0.000;2024-01-15T15:09:05;6.23;;;4.93;;
28958;SDS011;16066;0.000;0.000;2024-01-15T15:11:34;7.03;;;4.70;;
28958;SDS011;16066;0.000;0.000;2024-01-15T15:14:01;5.83;;;4.27;;
28958;SDS011;16066;0.000;0.000;2024-01-15T15:16:26;5.33;;;4.17;;
28958;SDS011;16066;0.000;0.000;2024-01-15T15:18:52;4.83;;;4.10;;
28958;SDS011;16066;0.000;0.000;2024-01-15T15:21:18;4.90;;;3.53;;
28958;SDS011;16066;0.000;0.000;2024-01-15T15:23:43;9.20;;;4.23;;
28958;SDS011;16066;0.000;0.000;2024-01-15T15:26:09;6.23;;;4.23;;
28958;SDS011;16066;0.000;0.000;2024-01-15T15:28:34;4.83;;;4.10;;
28958;SDS011;16066;0.000;0.000;2024-01-15T15:31:03;8.80;;;4.63;;
28958;SDS011;16066;0.000;0.000;2024-01-15T15:33:33;4.87;;;4.07;;
28958;SDS011;16066;0.000;0.000;2024-01-15T15:35:58;4.50;;;3.80;;
28958;SDS011;16066;0.000;0.000;2024-01-15T15:38:29;8.17;;;4.03;;
28958;SDS011;16066;0.000;0.000;2024-01-15T15:40:55;5.50;;;3.83;;
28958;SDS011;16066;0.000;0.000;2024-01-15T15:43:21;4.70;;;3.97;;
28958;SDS011;16066;0.000;0.000;2024-01-15T15:45:46;4.93;;;4.03;;
28958;SDS011;16066;0.000;0.000;2024-01-15T15:48:12;12.80;;;4.10;;
28958;SDS011;16066;0.000;0.000;2024-01-15T15:50:37;5.17;;;3.70;;
28958;SDS011;16066;0.000;0.000;2024-01-15T15:53:03;3.90;;;3.50;;
28958;SDS011;16066;0.000;0.000;2024-01-15T15:55:28;4.83;;;3.70;;
28958;SDS011;16066;0.000;0.000;2024-01-15T15:57:54;5.67;;;4.10;;
28958;SDS011;16066;0.000;0.000;2024-01-15T16:00:19;8.03;;;3.60;;
28958;SDS011;16066;0.000;0.000;2024-01-15T16:02:45;4.83;;;4.20;;
28958;SDS011;16066;0.000;0.000;2024-01-15T16:05:11;5.77;;;3.87;;
28958;SDS011;16066;0.000;0.000;2024-01-15T16:07:36;5.23;;;3.80;;
28958;SDS011;16066;0.000;0.000;2024-01-15T16:10:02;7.90;;;5.03;;
28958;SDS011;16066;0.000;0.000;2024-01-15T16:12:28;6.07;;;3.77;;
28958;SDS011;16066;0.000;0.000;2024-01-15T16:14:53;5.30;;;3.87;;
28958;SDS011;16066;0.000;0.000;2024-01-15T16:17:19;6.40;;;3.90;;
28958;SDS011;16066;0.000;0.000;2024-01-15T16:19:44;4.50;;;3.97;;
28958;SDS011;16066;0.000;0.000;2024-01-15T16:22:10;7.70;;;4.47;;
28958;SDS011;16066;0.000;0.000;2024-01-15T16:24:36;6.97;;;5.20;;
28958;SDS011;16066;0.000;0.000;2024-01-15T16:27:02;6.03;;;4.90;;
28958;SDS011;16066;0.000;0.000;2024-01-15T16:29:27;7.10;;;5.27;;
28958;SDS011;16066;0.000;0.000;2024-01-15T16:31:53;6.80;;;4.90;;
28958;SDS011;16066;0.000;0.000;2024-01-15T16:34:19;6.67;;;5.27;;
28958;SDS011;16066;0.000;0.000;2024-01-15T16:36:44;5.53;;;4.50;;
28958;SDS011;16066;0.000;0.000;2024-01-15T16:39:10;6.03;;;4.83;;
28958;SDS011;16066;0.000;0.000;2024-01-15T16:41:35;7.70;;;5.00;;
28958;SDS011;16066;0.000;0.000;2024-01-15T16:44:01;8.23;;;5.20;;
28958;SDS011;16066;0.000;0.000;2024-01-15T16:46:27;7.40;;;5.20;;
28958;SDS011;16066;0.000;0.000;2024-01-15T16:48:53;11.70;;;4.83;;
28958;SDS011;16066;0.000;0.000;2024-01-15T16:51:18;7.53;;;5.00;;
28958;SDS011;16066;0.000;0.000;2024-01-15T16:53:44;8.10;;;4.80;;
28958;SDS011;16066;0.000;0.000;2024-01-15T16:56:09;12.73;;;5.07;;
28958;SDS011;16066;0.000;0.000;2024-01-15T16:58:35;12.17;;;5.03;;
28958;SDS011;16066;0.000;0.000;2024-01-15T17:01:00;5.90;;;4.47;;
28958;SDS011;16066;0.000;0.000;2024-01-15T17:03:26;6.83;;;4.40;;
28958;SDS011;16066;0.000;0.000;2024-01-15T17:05:51;6.90;;;5.00;;
28958;SDS011;16066;0.000;0.000;2024-01-15T17:08:17;5.80;;;4.07;;
28958;SDS011;16066;0.000;0.000;2024-01-15T17:10:42;5.50;;;4.30;;
28958;SDS011;16066;0.000;0.000;2024-01-15T17:13:08;6.27;;;5.20;;
28958;SDS011;16066;0.000;0.000;2024-01-15T17:15:34;6.77;;;4.53;;
28958;SDS011;16066;0.000;0.000;2024-01-15T17:17:59;6.77;;;5.10;;
28958;SDS011;16066;0.000;0.000;2024-01-15T17:20:25;7.00;;;4.10;;
28958;SDS011;16066;0.000;0.000;2024-01-15T17:22:50;6.33;;;4.20;;
28958;SDS011;16066;0.000;0.000;2024-01-15T17:25:16;8.90;;;4.00;;
28958;SDS011;16066;0.000;0.000;2024-01-15T17:27:41;6.37;;;4.70;;
28958;SDS011;16066;0.000;0.000;2024-01-15T17:30:07;5.20;;;4.10;;
28958;SDS011;16066;0.000;0.000;2024-01-15T17:32:33;6.93;;;4.73;;
28958;SDS011;16066;0.000;0.000;2024-01-15T17:34:59;5.37;;;4.30;;
28958;SDS011;16066;0.000;0.000;2024-01-15T17:37:25;6.83;;;4.50;;
28958;SDS011;16066;0.000;0.000;2024-01-15T17:39:51;5.67;;;3.77;;
28958;SDS011;16066;0.000;0.000;2024-01-15T17:42:17;5.03;;;3.70;;
28958;SDS011;16066;0.000;0.000;2024-01-15T17:44:43;4.57;;;3.70;;
28958;SDS011;16066;0.000;0.000;2024-01-15T17:47:08;5.10;;;3.80;;
28958;SDS011;16066;0.000;0.000;2024-01-15T17:49:34;5.97;;;4.30;;
28958;SDS011;16066;0.000;0.000;2024-01-15T17:52:00;5.03;;;4.00;;
28958;SDS011;16066;0.000;0.000;2024-01-15T17:54:26;4.67;;;3.90;;
28958;SDS011;16066;0.000;0.000;2024-01-15T17:56:53;6.37;;;3.70;;
28958;SDS011;16066;0.000;0.000;2024-01-15T17:59:19;6.77;;;4.17;;
28958;SDS011;16066;0.000;0.000;2024-01-15T18:01:45;5.33;;;3.87;;
28958;SDS011;16066;0.000;0.000;2024-01-15T18:04:12;5.07;;;3.67;;
28958;SDS011;16066;0.000;0.000;2024-01-15T18:06:37;5.17;;;3.40;;
28958;SDS011;16066;0.000;0.000;2024-01-15T18:09:03;6.57;;;3.70;;
28958;SDS011;16066;0.000;0.000;2024-01-15T18:11:29;4.10;;;3.60;;
28958;SDS011;16066;0.000;0.000;2024-01-15T18:13:55;6.23;;;4.00;;
28958;SDS011;16066;0.000;0.000;2024-01-15T18:16:21;7.93;;;4.00;;
28958;SDS011;16066;0.000;0.000;2024-01-15T18:18:52;9.53;;;3.83;;
28958;SDS011;16066;0.000;0.000;2024-01-15T18:21:18;5.17;;;3.93;;
28958;SDS011;16066;0.000;0.000;2024-01-15T18:23:45;6.67;;;3.83;;
28958;SDS011;16066;0.000;0.000;2024-01-15T18:26:10;8.55;;;3.80;;
28958;SDS011;16066;0.000;0.000;2024-01-15T18:28:36;11.27;;;3.63;;
28958;SDS011;16066;0.000;0.000;2024-01-15T18:31:01;12.20;;;4.00;;
28958;SDS011;16066;0.000;0.000;2024-01-15T18:33:27;6.70;;;3.43;;
28958;SDS011;16066;0.000;0.000;2024-01-15T18:35:52;7.63;;;4.07;;
28958;SDS011;16066;0.000;0.000;2024-01-15T18:38:18;6.40;;;3.90;;
28958;SDS011;16066;0.000;0.000;2024-01-15T18:40:43;10.00;;;3.97;;
28958;SDS011;16066;0.000;0.000;2024-01-15T18:43:09;5.53;;;3.73;;
28958;SDS011;16066;0.000;0.000;2024-01-15T18:45:37;8.47;;;4.00;;
28958;SDS011;16066;0.000;0.000;2024-01-15T18:48:03;7.57;;;3.83;;
28958;SDS011;16066;0.000;0.000;2024-01-15T18:50:28;7.77;;;3.43;;
28958;SDS011;16066;0.000;0.000;2024-01-15T18:52:54;6.97;;;3.50;;
28958;SDS011;16066;0.000;0.000;2024-01-15T18:55:20;4.20;;;2.93;;
28958;SDS011;16066;0.000;0.000;2024-01-15T18:57:46;6.87;;;3.90;;
28958;SDS011;16066;0.000;0.000;2024-01-15T19:00:13;9.60;;;4.10;;
28958;SDS011;16066;0.000;0.000;2024-01-15T19:02:39;5.37;;;3.67;;
28958;SDS011;16066;0.000;0.000;2024-01-15T19:05:04;4.83;;;3.00;;
28958;SDS011;16066;0.000;0.000;2024-01-15T19:07:30;3.93;;;3.53;;
28958;SDS011;16066;0.000;0.000;2024-01-15T19:09:57;7.70;;;3.20;;
28958;SDS011;16066;0.000;0.000;2024-01-15T19:12:23;6.90;;;3.37;;
28958;SDS011;16066;0.000;0.000;2024-01-15T19:14:49;6.13;;;3.80;;
28958;SDS011;16066;0.000;0.000;2024-01-15T19:17:14;4.77;;;3.40;;
28958;SDS011;16066;0.000;0.000;2024-01-15T19:19:40;6.77;;;3.40;;
28958;SDS011;16066;0.000;0.000;2024-01-15T19:22:06;7.00;;;3.70;;
28958;SDS011;16066;0.000;0.000;2024-01-15T19:24:31;7.27;;;4.40;;
28958;SDS011;16066;0.000;0.000;2024-01-15T19:26:57;8.60;;;4.13;;
28958;SDS011;16066;0.000;0.000;2024-01-15T19:29:22;17.30;;;4.60;;
28958;SDS011;16066;0.000;0.000;2024-01-15T19:31:48;12.37;;;4.10;;
28958;SDS011;16066;0.000;0.000;2024-01-15T19:34:13;6.70;;;3.57;;
28958;SDS011;16066;0.000;0.000;2024-01-15T19:36:39;7.53;;;3.80;;
28958;SDS011;16066;0.000;0.000;2024-01-15T19:39:05;9.20;;;3.70;;
28958;SDS011;16066;0.000;0.000;2024-01-15T19:41:33;6.60;;;3.47;;
28958;SDS011;16066;0.000;0.000;2024-01-15T19:43:58;9.63;;;3.70;;
28958;SDS011;16066;0.000;0.000;2024-01-15T19:46:24;7.70;;;3.73;;
28958;SDS011;16066;0.000;0.000;2024-01-15T19:48:50;7.07;;;3.97;;
28958;SDS011;16066;0.000;0.000;2024-01-15T19:51:16;10.00;;;4.17;;
28958;SDS011;16066;0.000;0.000;2024-01-15T19:53:41;4.70;;;3.20;;
28958;SDS011;16066;0.000;0.000;2024-01-15T19:56:07;4.20;;;2.90;;
28958;SDS011;16066;0.000;0.000;2024-01-15T19:58:33;9.17;;;4.23;;
28958;SDS011;16066;0.000;0.000;2024-01-15T20:01:00;9.40;;;4.20;;
28958;SDS011;16066;0.000;0.000;2024-01-15T20:03:27;7.13;;;3.90;;
28958;SDS011;16066;0.000;0.000;2024-01-15T20:05:53;25.57;;;5.93;;
28958;SDS011;16066;0.000;0.000;2024-01-15T20:08:19;34.03;;;6.50;;
28958;SDS011;16066;0.000;0.000;2024-01-15T20:10:44;21.47;;;5.50;;
28958;SDS011;16066;0.000;0.000;2024-01-15T20:13:10;17.10;;;5.60;;
28958;SDS011;16066;0.000;0.000;2024-01-15T20:15:36;22.60;;;5.33;;
28958;SDS011;16066;0.000;0.000;2024-01-15T20:18:03;43.10;;;6.90;;
28958;SDS011;16066;0.000;0.000;2024-01-15T20:20:29;38.90;;;7.00;;
28958;SDS011;16066;0.000;0.000;2024-01-15T20:22:54;33.33;;;7.60;;
28958;SDS011;16066;0.000;0.000;2024-01-15T20:25:21;44.00;;;8.20;;
28958;SDS011;16066;0.000;0.000;2024-01-15T20:27:46;40.57;;;6.73;;
28958;SDS011;16066;0.000;0.000;2024-01-15T20:30:13;30.10;;;6.43;;
28958;SDS011;16066;0.000;0.000;2024-01-15T20:32:38;32.33;;;6.33;;
28958;SDS011;16066;0.000;0.000;2024-01-15T20:35:04;26.07;;;6.77;;
28958;SDS011;16066;0.000;0.000;2024-01-15T20:37:30;23.63;;;5.53;;
28958;SDS011;16066;0.000;0.000;2024-01-15T20:39:55;34.37;;;6.57;;
28958;SDS011;16066;0.000;0.000;2024-01-15T20:42:22;37.50;;;7.13;;
28958;SDS011;16066;0.000;0.000;2024-01-15T20:44:48;18.30;;;5.13;;
28958;SDS011;16066;0.000;0.000;2024-01-15T20:47:14;21.37;;;6.10;;
28958;SDS011;16066;0.000;0.000;2024-01-15T20:49:39;14.00;;;5.80;;
28958;SDS011;16066;0.000;0.000;2024-01-15T20:52:05;14.23;;;4.40;;
28958;SDS011;16066;0.000;0.000;2024-01-15T20:54:31;12.70;;;4.23;;
28958;SDS011;16066;0.000;0.000;2024-01-15T20:56:56;10.97;;;3.87;;
28958;SDS011;16066;0.000;0.000;2024-01-15T20:59:26;13.50;;;3.93;;
28958;SDS011;16066;0.000;0.000;2024-01-15T21:01:51;8.50;;;4.00;;
28958;SDS011;16066;0.000;0.000;2024-01-15T21:04:17;12.50;;;4.07;;